^^
Your Local Weather - Clay, NY Station Historical Data
Daily Summary for October 24, 2017 Units:  English    Metric   Both
« Previous Day
Next Day »
Daily Weekly Monthly Yearly Custom
  High: Low: Average:
Temperature: 71.4 °F 56.1 °F 65.1 °F
Dew Point: 61.9 °F 47.3 °F 55 °F
Humidity: 91% 52% 71%
Wind Speed: 10.0mph 0.0mph 3.8mph
Wind Gust: 19.0mph - -
Wind- - South
Pressure: 29.73 in 29.55 in -
Precipitation: 0.56 in    
Historical Graphs
 
 
Tabular Data for October 24, 2017
Time Temperature Dew Point Pressure Wind Wind Speed Wind Gust Humidity Rainfall Rate (Hourly) solar
00:02 70.0 °F 57.3 °F 29.73 in SSE 7.0 mph 8.0 mph 64% 0.00 in 0 W/m2
00:08 70.2 °F 57.0 °F 29.72 in South 8.0 mph 13.0 mph 63% 0.00 in 0 W/m2
00:14 70.1 °F 56.9 °F 29.71 in SSE 8.0 mph 10.0 mph 63% 0.00 in 0 W/m2
00:20 70.1 °F 56.9 °F 29.70 in SE 7.0 mph 7.0 mph 63% 0.00 in 0 W/m2
00:26 70.0 °F 56.8 °F 29.70 in SE 7.0 mph 12.0 mph 63% 0.00 in 0 W/m2
00:32 69.9 °F 57.2 °F 29.70 in SE 6.0 mph 7.0 mph 64% 0.00 in 0 W/m2
00:38 69.9 °F 57.2 °F 29.70 in South 6.0 mph 13.0 mph 64% 0.00 in 0 W/m2
00:44 69.9 °F 57.2 °F 29.70 in SSE 7.0 mph 8.0 mph 64% 0.00 in 0 W/m2
00:50 69.9 °F 57.2 °F 29.70 in SE 7.0 mph 7.0 mph 64% 0.00 in 0 W/m2
00:56 69.9 °F 57.2 °F 29.70 in SSE 7.0 mph 13.0 mph 64% 0.00 in 0 W/m2
01:02 69.8 °F 57.5 °F 29.69 in South 6.0 mph 12.0 mph 65% 0.00 in 0 W/m2
01:08 69.9 °F 57.6 °F 29.68 in SE 7.0 mph 12.0 mph 65% 0.00 in 0 W/m2
01:14 70.1 °F 57.4 °F 29.68 in SE 8.0 mph 12.0 mph 64% 0.00 in 0 W/m2
01:20 70.0 °F 57.3 °F 29.68 in SSE 7.0 mph 7.0 mph 64% 0.00 in 0 W/m2
01:26 70.1 °F 57.4 °F 29.68 in SSE 7.0 mph 7.0 mph 64% 0.00 in 0 W/m2
01:32 70.2 °F 57.9 °F 29.68 in SSE 6.0 mph 7.0 mph 65% 0.00 in 0 W/m2
01:38 70.2 °F 57.4 °F 29.67 in SSE 6.0 mph 12.0 mph 64% 0.00 in 0 W/m2
01:44 70.2 °F 57.4 °F 29.68 in South 7.0 mph 7.0 mph 64% 0.00 in 0 W/m2
01:52 70.4 °F 58.1 °F 29.67 in ESE 7.0 mph 7.0 mph 65% 0.00 in 0 W/m2
01:58 70.5 °F 58.2 °F 29.67 in ESE 8.0 mph 19.0 mph 65% 0.00 in 0 W/m2
02:04 70.7 °F 58.4 °F 29.68 in SE 9.0 mph 14.0 mph 65% 0.00 in 0 W/m2
02:10 70.8 °F 58.4 °F 29.67 in South 8.0 mph 8.0 mph 65% 0.00 in 0 W/m2
02:16 70.8 °F 58.4 °F 29.66 in SE 8.0 mph 16.0 mph 65% 0.00 in 0 W/m2
02:22 71.1 °F 58.3 °F 29.65 in SE 10.0 mph 14.0 mph 64% 0.00 in 0 W/m2
02:28 71.1 °F 58.3 °F 29.64 in SE 10.0 mph 14.0 mph 64% 0.00 in 0 W/m2
02:34 71.0 °F 58.6 °F 29.64 in SE 9.0 mph 10.0 mph 65% 0.00 in 0 W/m2
02:40 70.9 °F 58.5 °F 29.63 in South 8.0 mph 8.0 mph 65% 0.00 in 0 W/m2
02:46 71.0 °F 58.2 °F 29.63 in SSE 8.0 mph 8.0 mph 64% 0.00 in 0 W/m2
02:52 71.1 °F 58.3 °F 29.62 in ESE 9.0 mph 16.0 mph 64% 0.00 in 0 W/m2
02:58 71.0 °F 58.2 °F 29.62 in East 9.0 mph 16.0 mph 64% 0.00 in 0 W/m2
03:04 71.0 °F 58.2 °F 29.62 in SE 7.0 mph 9.0 mph 64% 0.00 in 0 W/m2
03:10 71.1 °F 57.9 °F 29.62 in ESE 8.0 mph 11.0 mph 63% 0.00 in 0 W/m2
03:16 71.1 °F 57.9 °F 29.62 in SE 8.0 mph 11.0 mph 63% 0.00 in 0 W/m2
03:22 71.1 °F 57.9 °F 29.60 in SSE 6.0 mph 8.0 mph 63% 0.00 in 0 W/m2
03:28 71.2 °F 58.0 °F 29.61 in SE 7.0 mph 11.0 mph 63% 0.00 in 0 W/m2
03:34 71.2 °F 58.0 °F 29.61 in SE 8.0 mph 9.0 mph 63% 0.00 in 0 W/m2
03:40 71.2 °F 58.0 °F 29.61 in SSE 7.0 mph 7.0 mph 63% 0.00 in 0 W/m2
03:46 71.1 °F 57.9 °F 29.60 in ESE 7.0 mph 10.0 mph 63% 0.00 in 0 W/m2
03:52 71.1 °F 57.9 °F 29.59 in South 8.0 mph 17.0 mph 63% 0.00 in 0 W/m2
03:58 71.2 °F 58.0 °F 29.59 in SE 9.0 mph 17.0 mph 63% 0.00 in 0 W/m2
04:04 71.1 °F 57.9 °F 29.59 in ESE 9.0 mph 10.0 mph 63% 0.00 in 0 W/m2
04:10 71.1 °F 57.9 °F 29.59 in SSE 7.0 mph 8.0 mph 63% 0.00 in 0 W/m2
04:16 71.2 °F 57.5 °F 29.59 in SE 7.0 mph 9.0 mph 62% 0.00 in 0 W/m2
04:22 71.3 °F 57.6 °F 29.58 in South 8.0 mph 10.0 mph 62% 0.00 in 0 W/m2
04:28 71.4 °F 57.7 °F 29.58 in SE 8.0 mph 12.0 mph 62% 0.00 in 0 W/m2
04:34 71.3 °F 57.6 °F 29.57 in ESE 7.0 mph 10.0 mph 62% 0.00 in 0 W/m2
04:40 71.2 °F 58.0 °F 29.57 in SE 8.0 mph 8.0 mph 63% 0.00 in 0 W/m2
04:46 71.1 °F 58.3 °F 29.57 in SE 7.0 mph 12.0 mph 64% 0.00 in 0 W/m2
04:52 70.5 °F 58.6 °F 29.57 in South 7.0 mph 11.0 mph 66% 0.00 in 0 W/m2
04:58 69.7 °F 59.1 °F 29.57 in SSE 7.0 mph 11.0 mph 69% 0.00 in 0 W/m2
05:04 69.7 °F 59.1 °F 29.56 in SE 6.0 mph 10.0 mph 69% 0.00 in 0 W/m2
05:10 69.9 °F 58.9 °F 29.57 in SSE 6.0 mph 7.0 mph 68% 0.00 in 0 W/m2
05:16 69.9 °F 59.3 °F 29.57 in SE 6.0 mph 7.0 mph 69% 0.00 in 0 W/m2
05:22 69.8 °F 59.6 °F 29.57 in SSW 5.0 mph 10.0 mph 70% 0.00 in 0 W/m2
05:28 69.6 °F 59.4 °F 29.57 in SE 6.0 mph 11.0 mph 70% 0.00 in 0 W/m2
05:34 69.3 °F 59.9 °F 29.57 in SE 6.0 mph 7.0 mph 72% 0.00 in 0 W/m2
05:40 68.8 °F 60.2 °F 29.56 in SE 6.0 mph 6.0 mph 74% 0.00 in 0 W/m2
05:46 67.8 °F 60.7 °F 29.56 in SE 6.0 mph 9.0 mph 78% 0.00 in 0 W/m2
05:52 66.8 °F 60.8 °F 29.55 in SE 5.0 mph 6.0 mph 81% 0.08 in 0 W/m2
05:58 66.5 °F 60.8 °F 29.55 in SE 4.0 mph 7.0 mph 82% 0.05 in 0 W/m2
06:04 66.4 °F 61.1 °F 29.55 in SSE 4.0 mph 4.0 mph 83% 0.05 in 0 W/m2
06:10 66.5 °F 61.2 °F 29.56 in SE 4.0 mph 4.0 mph 83% 0.05 in 0 W/m2
06:16 66.6 °F 61.3 °F 29.56 in SE 5.0 mph 5.0 mph 83% 0.04 in 0 W/m2
06:22 66.7 °F 61.4 °F 29.55 in SSE 4.0 mph 7.0 mph 83% 0.00 in 0 W/m2
06:28 67.0 °F 61.7 °F 29.56 in SSE 7.0 mph 14.0 mph 83% 0.00 in 0 W/m2
06:34 67.0 °F 61.7 °F 29.56 in SE 8.0 mph 9.0 mph 83% 0.00 in 0 W/m2
06:40 67.0 °F 61.7 °F 29.56 in South 8.0 mph 8.0 mph 83% 0.00 in 0 W/m2
06:42 66.9 °F 61.6 °F 29.56 in SE 7.0 mph 9.0 mph 83% 0.00 in 0 W/m2
06:48 66.8 °F 61.8 °F 29.56 in South 5.0 mph 9.0 mph 84% 0.00 in 0 W/m2
06:54 66.8 °F 61.5 °F 29.56 in SSE 5.0 mph 5.0 mph 83% 0.00 in 0 W/m2
07:00 66.8 °F 61.5 °F 29.56 in SSW 5.0 mph 5.0 mph 83% 0.00 in 0 W/m2
07:06 66.5 °F 61.5 °F 29.56 in South 5.0 mph 5.0 mph 84% 0.00 in 0 W/m2
07:12 66.2 °F 61.6 °F 29.56 in South 2.0 mph 3.0 mph 85% 0.11 in 0 W/m2
07:18 65.8 °F 61.5 °F 29.56 in Calm   3.0 mph 86% 0.07 in 0 W/m2
07:24 65.7 °F 61.7 °F 29.56 in Calm     87% 0.15 in 0 W/m2
07:30 65.5 °F 61.9 °F 29.56 in Calm   1.0 mph 88% 0.09 in 0 W/m2
07:36 65.2 °F 61.6 °F 29.56 in Calm   1.0 mph 88% 0.06 in 0 W/m2
07:42 65.0 °F 61.7 °F 29.55 in Calm   2.0 mph 89% 0.24 in 0 W/m2
07:48 64.8 °F 61.8 °F 29.56 in Calm   2.0 mph 90% 0.23 in 0 W/m2
07:54 64.1 °F 60.8 °F 29.59 in WSW 1.0 mph 10.0 mph 89% 0.75 in 0 W/m2
08:00 60.3 °F 56.4 °F 29.60 in SW 5.0 mph 5.0 mph 87% 1.03 in 0 W/m2
08:06 59.3 °F 56.1 °F 29.60 in WSW 4.0 mph 6.0 mph 89% 0.22 in 0 W/m2
08:12 58.8 °F 55.9 °F 29.60 in SW 4.0 mph 5.0 mph 90% 0.19 in 5 W/m2
08:18 58.7 °F 55.8 °F 29.62 in WSW 3.0 mph 5.0 mph 90% 0.08 in 0 W/m2
08:24 58.6 °F 56.0 °F 29.61 in WSW 3.0 mph 3.0 mph 91% 0.98 in 9 W/m2
08:30 58.5 °F 55.9 °F 29.62 in WSW 3.0 mph 3.0 mph 91% 1.81 in 11 W/m2
08:36 58.4 °F 55.8 °F 29.62 in WSW 3.0 mph 4.0 mph 91% 0.17 in 33 W/m2
08:42 58.4 °F 55.8 °F 29.62 in SSW 3.0 mph 8.0 mph 91% 0.06 in 46 W/m2
08:48 58.2 °F 55.6 °F 29.62 in West 4.0 mph 10.0 mph 91% 0.04 in 49 W/m2
08:54 58.2 °F 55.6 °F 29.63 in WSW 3.0 mph 6.0 mph 91% 0.04 in 67 W/m2
09:00 58.2 °F 55.6 °F 29.63 in WSW 3.0 mph 4.0 mph 91% 0.04 in 54 W/m2
09:12 58.2 °F 55.6 °F 29.63 in SW 3.0 mph 4.0 mph 91% 0.00 in 51 W/m2
09:18 58.2 °F 55.6 °F 29.63 in SSW 3.0 mph 6.0 mph 91% 0.00 in 49 W/m2
09:24 58.3 °F 55.7 °F 29.64 in SW 3.0 mph 4.0 mph 91% 0.00 in 46 W/m2
09:30 58.4 °F 55.8 °F 29.64 in SW 2.0 mph 6.0 mph 91% 0.00 in 49 W/m2
09:36 58.6 °F 56.0 °F 29.64 in SW 2.0 mph 6.0 mph 91% 0.00 in 70 W/m2
09:42 58.8 °F 56.2 °F 29.65 in SSE 2.0 mph 6.0 mph 91% 0.00 in 93 W/m2
09:48 59.1 °F 56.5 °F 29.65 in SW 3.0 mph 7.0 mph 91% 0.00 in 160 W/m2
09:54 59.3 °F 56.7 °F 29.63 in South 3.0 mph 3.0 mph 91% 0.00 in 98 W/m2
10:00 59.6 °F 56.7 °F 29.63 in SSW 3.0 mph 4.0 mph 90% 0.00 in 178 W/m2
10:06 60.0 °F 56.4 °F 29.63 in SSW 4.0 mph 4.0 mph 88% 0.00 in 199 W/m2
10:12 60.8 °F 56.3 °F 29.63 in SW 5.0 mph 5.0 mph 85% 0.00 in 429 W/m2
10:18 61.2 °F 55.7 °F 29.63 in SSW 4.0 mph 5.0 mph 82% 0.00 in 98 W/m2
10:24 61.7 °F 56.1 °F 29.63 in SSW 4.0 mph 6.0 mph 82% 0.00 in 454 W/m2
10:30 62.8 °F 57.2 °F 29.63 in South 4.0 mph 4.0 mph 82% 0.00 in 473 W/m2
10:36 63.2 °F 56.2 °F 29.64 in SSW 4.0 mph 6.0 mph 78% 0.00 in 506 W/m2
10:42 63.3 °F 56.7 °F 29.63 in South 5.0 mph 5.0 mph 79% 0.00 in 297 W/m2
10:48 63.9 °F 56.9 °F 29.63 in SE 4.0 mph 5.0 mph 78% 0.00 in 350 W/m2
10:54 63.6 °F 55.9 °F 29.63 in SSE 4.0 mph 5.0 mph 76% 0.00 in 278 W/m2
11:00 64.3 °F 56.9 °F 29.63 in SSE 4.0 mph 6.0 mph 77% 0.00 in 571 W/m2
11:06 65.3 °F 57.2 °F 29.63 in SE 4.0 mph 6.0 mph 75% 0.00 in 575 W/m2
11:12 65.0 °F 55.8 °F 29.63 in SSE 4.0 mph 8.0 mph 72% 0.00 in 554 W/m2
11:18 65.4 °F 55.7 °F 29.63 in SSW 4.0 mph 8.0 mph 71% 0.00 in 520 W/m2
11:24 65.6 °F 56.3 °F 29.63 in South 4.0 mph 8.0 mph 72% 0.00 in 550 W/m2
11:30 65.6 °F 55.2 °F 29.63 in South 3.0 mph 5.0 mph 69% 0.00 in 619 W/m2
11:36 66.0 °F 54.7 °F 29.63 in SSE 4.0 mph 7.0 mph 67% 0.00 in 584 W/m2
11:42 66.4 °F 54.7 °F 29.63 in SSW 5.0 mph 7.0 mph 66% 0.00 in 656 W/m2
11:48 65.9 °F 54.6 °F 29.63 in SW 6.0 mph 7.0 mph 67% 0.00 in 274 W/m2
11:54 66.0 °F 54.7 °F 29.63 in SW 4.0 mph 7.0 mph 67% 0.00 in 362 W/m2
12:00 66.0 °F 54.7 °F 29.63 in SW 4.0 mph 4.0 mph 67% 0.00 in 232 W/m2
12:06 65.7 °F 54.8 °F 29.63 in SW 4.0 mph 6.0 mph 68% 0.00 in 316 W/m2
12:12 66.8 °F 55.9 °F 29.62 in South 4.0 mph 6.0 mph 68% 0.00 in 494 W/m2
12:18 67.6 °F 55.8 °F 29.62 in SW 4.0 mph 6.0 mph 66% 0.00 in 673 W/m2
12:24 67.3 °F 54.7 °F 29.62 in SW 4.0 mph 7.0 mph 64% 0.00 in 318 W/m2
12:30 67.0 °F 54.8 °F 29.62 in SW 3.0 mph 4.0 mph 65% 0.00 in 220 W/m2
12:36 66.7 °F 54.1 °F 29.62 in WSW 3.0 mph 6.0 mph 64% 0.00 in 209 W/m2
12:42 66.5 °F 53.9 °F 29.61 in WSW 4.0 mph 4.0 mph 64% 0.00 in 179 W/m2
12:54 67.0 °F 53.1 °F 29.61 in SW 4.0 mph 8.0 mph 61% 0.00 in 663 W/m2
13:00 66.9 °F 53.9 °F 29.60 in WSW 4.0 mph 4.0 mph 63% 0.00 in 213 W/m2
13:06 66.6 °F 53.6 °F 29.60 in SW 3.0 mph 4.0 mph 63% 0.00 in 199 W/m2
13:12 68.0 °F 55.8 °F 29.60 in SW 3.0 mph 4.0 mph 65% 0.00 in 694 W/m2
13:18 68.9 °F 54.4 °F 29.60 in WSW 3.0 mph 6.0 mph 60% 0.00 in 613 W/m2
13:24 69.3 °F 54.4 °F 29.59 in SSW 3.0 mph 3.0 mph 59% 0.00 in 585 W/m2
13:30 69.5 °F 55.5 °F 29.59 in SSW 3.0 mph 3.0 mph 61% 0.00 in 580 W/m2
13:36 69.0 °F 54.5 °F 29.59 in WSW 4.0 mph 7.0 mph 60% 0.00 in 575 W/m2
13:42 69.2 °F 53.8 °F 29.59 in SW 5.0 mph 6.0 mph 58% 0.00 in 573 W/m2
13:48 69.2 °F 54.7 °F 29.59 in SSW 4.0 mph 6.0 mph 60% 0.00 in 570 W/m2
13:54 69.4 °F 54.0 °F 29.59 in SW 4.0 mph 5.0 mph 58% 0.00 in 570 W/m2
14:00 69.0 °F 53.1 °F 29.60 in South 5.0 mph 5.0 mph 57% 0.00 in 130 W/m2
14:06 68.4 °F 53.5 °F 29.60 in South 4.0 mph 7.0 mph 59% 0.00 in 183 W/m2
14:12 68.1 °F 53.2 °F 29.60 in SSE 4.0 mph 5.0 mph 59% 0.00 in 223 W/m2
14:18 68.0 °F 53.1 °F 29.60 in SW 4.0 mph 5.0 mph 59% 0.00 in 128 W/m2
14:24 68.0 °F 53.1 °F 29.60 in SSW 3.0 mph 4.0 mph 59% 0.00 in 97 W/m2
14:30 67.6 °F 52.8 °F 29.60 in SW 4.0 mph 4.0 mph 59% 0.00 in 109 W/m2
14:36 67.5 °F 53.1 °F 29.60 in SW 3.0 mph 4.0 mph 60% 0.00 in 86 W/m2
14:42 67.6 °F 53.2 °F 29.60 in SSW 3.0 mph 4.0 mph 60% 0.00 in 91 W/m2
14:48 67.5 °F 53.1 °F 29.60 in SSW 3.0 mph 4.0 mph 60% 0.00 in 135 W/m2
14:54 67.6 °F 53.2 °F 29.59 in SSW 2.0 mph 5.0 mph 60% 0.00 in 139 W/m2
15:00 67.7 °F 52.9 °F 29.59 in WSW 3.0 mph 3.0 mph 59% 0.00 in 162 W/m2
15:06 67.9 °F 53.5 °F 29.59 in SW 3.0 mph 4.0 mph 60% 0.00 in 171 W/m2
15:12 68.8 °F 52.9 °F 29.59 in SW 3.0 mph 6.0 mph 57% 0.00 in 441 W/m2
15:18 69.6 °F 53.2 °F 29.59 in South 4.0 mph 6.0 mph 56% 0.00 in 343 W/m2
15:24 69.7 °F 52.8 °F 29.59 in SW 4.0 mph 7.0 mph 55% 0.00 in 459 W/m2
15:30 69.7 °F 52.8 °F 29.59 in SSE 5.0 mph 5.0 mph 55% 0.00 in 441 W/m2
15:36 68.8 °F 52.5 °F 29.59 in South 5.0 mph 5.0 mph 56% 0.00 in 118 W/m2
15:42 68.3 °F 52.5 °F 29.59 in SW 4.0 mph 5.0 mph 57% 0.00 in 178 W/m2
15:48 68.8 °F 52.9 °F 29.59 in South 4.0 mph 5.0 mph 57% 0.00 in 125 W/m2
15:54 69.0 °F 52.2 °F 29.59 in SSW 4.0 mph 5.0 mph 55% 0.00 in 162 W/m2
16:00 69.2 °F 51.8 °F 29.59 in WSW 5.0 mph 8.0 mph 54% 0.00 in 202 W/m2
16:06 69.3 °F 51.4 °F 29.59 in South 6.0 mph 9.0 mph 53% 0.00 in 360 W/m2
16:12 69.7 °F 51.8 °F 29.59 in SSE 6.0 mph 6.0 mph 53% 0.00 in 329 W/m2
16:18 69.4 °F 51.0 °F 29.59 in SW 5.0 mph 9.0 mph 52% 0.00 in 142 W/m2
16:24 68.7 °F 50.9 °F 29.59 in SSE 5.0 mph 7.0 mph 53% 0.00 in 51 W/m2
16:30 68.2 °F 51.4 °F 29.60 in South 6.0 mph 6.0 mph 55% 0.00 in 88 W/m2
16:36 68.4 °F 51.6 °F 29.60 in SSW 5.0 mph 6.0 mph 55% 0.00 in 250 W/m2
16:42 68.9 °F 51.1 °F 29.60 in SW 4.0 mph 9.0 mph 53% 0.00 in 237 W/m2
16:48 68.9 °F 51.1 °F 29.60 in SSE 5.0 mph 9.0 mph 53% 0.00 in 49 W/m2
16:54 68.4 °F 51.6 °F 29.60 in SSW 5.0 mph 5.0 mph 55% 0.00 in 56 W/m2
17:00 68.2 °F 51.4 °F 29.60 in SSW 4.0 mph 4.0 mph 55% 0.00 in 49 W/m2
17:06 68.0 °F 51.7 °F 29.60 in SSW 4.0 mph 5.0 mph 56% 0.00 in 49 W/m2
17:12 67.8 °F 51.5 °F 29.60 in South 4.0 mph 5.0 mph 56% 0.00 in 37 W/m2
17:18 67.6 °F 50.9 °F 29.60 in SSE 4.0 mph 5.0 mph 55% 0.00 in 26 W/m2
17:24 67.4 °F 51.2 °F 29.60 in SSW 3.0 mph 3.0 mph 56% 0.00 in 23 W/m2
17:30 67.2 °F 51.4 °F 29.60 in SSW 3.0 mph 3.0 mph 57% 0.00 in 23 W/m2
17:36 66.8 °F 51.1 °F 29.61 in South 3.0 mph 3.0 mph 57% 0.00 in 18 W/m2
17:42 66.6 °F 51.4 °F 29.61 in South 2.0 mph 2.0 mph 58% 0.00 in 19 W/m2
17:48 66.6 °F 50.9 °F 29.62 in SSW 2.0 mph 3.0 mph 57% 0.00 in 11 W/m2
17:54 66.5 °F 50.8 °F 29.62 in SSW 2.0 mph 3.0 mph 57% 0.00 in 9 W/m2
18:00 66.3 °F 51.1 °F 29.62 in SSW 1.0 mph 1.0 mph 58% 0.00 in 5 W/m2
18:06 66.0 °F 50.8 °F 29.62 in Calm   2.0 mph 58% 0.00 in 0 W/m2
18:12 65.3 °F 51.5 °F 29.62 in Calm     61% 0.00 in 0 W/m2
18:18 64.9 °F 51.6 °F 29.63 in Calm     62% 0.00 in 0 W/m2
18:24 64.7 °F 51.4 °F 29.63 in Calm   1.0 mph 62% 0.00 in 0 W/m2
18:30 64.6 °F 50.8 °F 29.63 in SSW 1.0 mph 1.0 mph 61% 0.00 in 0 W/m2
18:36 64.5 °F 50.7 °F 29.63 in Calm   1.0 mph 61% 0.00 in 0 W/m2
18:42 64.0 °F 51.1 °F 29.63 in Calm     63% 0.00 in 0 W/m2
18:48 63.4 °F 51.0 °F 29.63 in Calm     64% 0.00 in 0 W/m2
18:54 62.7 °F 50.8 °F 29.63 in Calm     65% 0.00 in 0 W/m2
19:00 61.9 °F 50.8 °F 29.64 in Calm     67% 0.00 in 0 W/m2
19:06 61.2 °F 50.9 °F 29.64 in Calm     69% 0.00 in 0 W/m2
19:12 60.7 °F 50.5 °F 29.64 in Calm     69% 0.00 in 0 W/m2
19:18 60.0 °F 50.6 °F 29.64 in Calm     71% 0.00 in 0 W/m2
19:24 59.4 °F 50.7 °F 29.64 in Calm     73% 0.00 in 0 W/m2
19:30 58.9 °F 51.0 °F 29.64 in Calm     75% 0.00 in 0 W/m2
19:36 58.4 °F 51.2 °F 29.64 in Calm     77% 0.00 in 0 W/m2
19:42 58.1 °F 50.9 °F 29.64 in Calm     77% 0.00 in 0 W/m2
19:48 57.8 °F 51.0 °F 29.65 in Calm     78% 0.00 in 0 W/m2
19:56 57.3 °F 51.2 °F 29.65 in Calm     80% 0.00 in 0 W/m2
20:02 57.1 °F 51.0 °F 29.65 in Calm     80% 0.00 in 0 W/m2
20:08 57.2 °F 51.4 °F 29.65 in Calm     81% 0.00 in 0 W/m2
20:14 57.3 °F 51.9 °F 29.65 in Calm     82% 0.00 in 0 W/m2
20:20 57.3 °F 51.5 °F 29.64 in Calm     81% 0.00 in 0 W/m2
20:26 57.4 °F 51.6 °F 29.65 in Calm     81% 0.00 in 0 W/m2
20:32 57.5 °F 52.0 °F 29.65 in Calm     82% 0.00 in 0 W/m2
20:38 57.5 °F 52.0 °F 29.65 in Calm   1.0 mph 82% 0.00 in 0 W/m2
20:44 57.6 °F 52.1 °F 29.65 in Calm     82% 0.00 in 0 W/m2
20:50 57.8 °F 52.0 °F 29.65 in Calm     81% 0.00 in 0 W/m2
20:56 58.0 °F 52.2 °F 29.65 in Calm     81% 0.00 in 0 W/m2
21:02 59.3 °F 51.7 °F 29.67 in WSW 1.0 mph 2.0 mph 76% 0.00 in 0 W/m2
21:08 60.1 °F 51.0 °F 29.67 in West 2.0 mph 2.0 mph 72% 0.00 in 0 W/m2
21:20 59.8 °F 51.1 °F 29.67 in Calm     73% 0.00 in 0 W/m2
21:26 59.5 °F 51.2 °F 29.67 in Calm     74% 0.00 in 0 W/m2
21:32 59.3 °F 51.0 °F 29.67 in Calm     74% 0.00 in 0 W/m2
21:38 59.1 °F 51.2 °F 29.68 in Calm   1.0 mph 75% 0.00 in 0 W/m2
21:44 59.0 °F 51.4 °F 29.69 in SSW 1.0 mph 3.0 mph 76% 0.00 in 0 W/m2
21:50 58.5 °F 51.3 °F 29.70 in SSW 2.0 mph 2.0 mph 77% 0.00 in 0 W/m2
21:56 57.9 °F 51.8 °F 29.70 in SSW 1.0 mph 2.0 mph 80% 0.00 in 0 W/m2
22:02 57.2 °F 52.1 °F 29.70 in Calm   1.0 mph 83% 0.00 in 0 W/m2
22:14 56.6 °F 52.1 °F 29.70 in Calm     85% 0.00 in 0 W/m2
22:20 56.4 °F 51.9 °F 29.70 in Calm   1.0 mph 85% 0.00 in 0 W/m2
22:26 56.3 °F 51.8 °F 29.70 in South 1.0 mph 1.0 mph 85% 0.00 in 0 W/m2
22:32 56.4 °F 51.9 °F 29.68 in Calm   1.0 mph 85% 0.00 in 0 W/m2
22:38 56.4 °F 51.9 °F 29.68 in Calm   1.0 mph 85% 0.00 in 0 W/m2
22:44 56.4 °F 51.6 °F 29.68 in South 1.0 mph 1.0 mph 84% 0.00 in 0 W/m2
22:50 56.5 °F 51.4 °F 29.68 in SSW 1.0 mph 1.0 mph 83% 0.00 in 0 W/m2
22:56 56.5 °F 51.1 °F 29.68 in SSW 1.0 mph 2.0 mph 82% 0.00 in 0 W/m2
23:02 56.6 °F 50.8 °F 29.69 in SW 1.0 mph 2.0 mph 81% 0.00 in 0 W/m2
23:08 56.6 °F 50.2 °F 29.70 in SW 2.0 mph 4.0 mph 79% 0.00 in 0 W/m2
23:14 56.7 °F 49.9 °F 29.70 in SW 3.0 mph 3.0 mph 78% 0.00 in 0 W/m2
23:20 56.7 °F 49.9 °F 29.69 in SW 2.0 mph 2.0 mph 78% 0.00 in 0 W/m2
23:26 56.5 °F 49.4 °F 29.68 in WSW 1.0 mph 2.0 mph 77% 0.00 in 0 W/m2
23:32 56.2 °F 48.7 °F 29.68 in WSW 1.0 mph 1.0 mph 76% 0.00 in 0 W/m2
23:38 56.1 °F 49.0 °F 29.68 in SSW 1.0 mph 4.0 mph 77% 0.00 in 0 W/m2
23:44 56.1 °F 48.3 °F 29.68 in SSW 1.0 mph 2.0 mph 75% 0.00 in 0 W/m2
23:50 56.1 °F 47.9 °F 29.68 in SSW 1.0 mph 1.0 mph 74% 0.00 in 0 W/m2
23:56 56.2 °F 47.3 °F 29.67 in SSW 1.0 mph 1.0 mph 72% 0.00 in 0 W/m2
Country Meadow, Clay, NY, USA
Compliments of Weather Underground - 2 mb